Time;durP1;ratioP1;P1;durP2;ratioP2;P2;SDS_P1;SDS_P2;PMS_P1;PMS_P2;Temp;Humidity;BMP_temperature;BMP_pressure;BME280_temperature;BME280_humidity;BME280_pressure;Samples;Min_cycle;Max_cycle;Signal;HPM_P1;HPM_P2
2023/09/20 00:03:32;;;;;;;2.73;2.60;;;18.20;98.60;;;;;;10317506;28;20219;-82
2023/09/20 00:08:47;;;;;;;2.90;2.70;;;18.20;98.80;;;;;;10289795;28;20215;-81
2023/09/20 00:13:54;;;;;;;2.97;2.77;;;18.20;98.90;;;;;;10332728;28;20683;-81
2023/09/20 00:19:03;;;;;;;3.20;3.00;;;18.20;99.00;;;;;;10332798;28;20259;-81
2023/09/20 00:24:23;;;;;;;3.07;2.90;;;18.20;98.90;;;;;;10328905;28;20239;-81
2023/09/20 00:29:35;;;;;;;3.17;2.97;;;18.30;99.00;;;;;;10314173;28;20200;-81
2023/09/20 00:34:53;;;;;;;3.30;3.07;;;18.30;98.80;;;;;;10314307;28;20228;-81
2023/09/20 00:40:13;;;;;;;3.10;2.90;;;18.20;98.70;;;;;;10302242;28;20216;-80
2023/09/20 00:45:22;;;;;;;3.27;3.07;;;18.20;98.90;;;;;;10322816;28;20603;-80
2023/09/20 00:50:35;;;;;;;3.10;2.90;;;18.20;99.00;;;;;;10324025;28;20200;-80
2023/09/20 00:55:53;;;;;;;3.33;3.13;;;18.20;98.70;;;;;;10324396;28;20226;-80
2023/09/20 01:01:05;;;;;;;2.73;2.60;;;18.20;99.00;;;;;;10315543;28;20387;-81
2023/09/20 01:06:14;;;;;;;3.20;3.00;;;18.20;99.00;;;;;;10318664;28;20629;-81
2023/09/20 01:23:10;;;;;;;2.60;2.50;;;18.20;98.80;;;;;;10335337;28;20718;-80
2023/09/20 01:28:28;;;;;;;2.80;2.60;;;18.10;99.00;;;;;;10331132;28;20729;-80
2023/09/20 01:39:26;;;;;;;3.50;2.87;;;18.10;99.10;;;;;;10318663;28;20220;-81
2023/09/20 01:50:38;;;;;;;3.10;2.90;;;18.10;99.20;;;;;;10299830;28;20208;-80
2023/09/20 01:56:01;;;;;;;2.87;2.70;;;18.10;99.20;;;;;;10337275;28;20267;-81
2023/09/20 02:01:03;;;;;;;3.00;2.90;;;18.00;99.10;;;;;;10316584;28;20314;-81
2023/09/20 02:06:06;;;;;;;2.97;2.77;;;18.00;99.10;;;;;;10337003;28;20227;-81
2023/09/20 02:11:10;;;;;;;3.37;3.17;;;18.00;99.30;;;;;;10322446;28;20291;-81
2023/09/20 02:16:12;;;;;;;3.10;2.90;;;18.00;99.20;;;;;;10321569;28;20650;-80
2023/09/20 02:21:15;;;;;;;3.40;3.10;;;18.00;99.40;;;;;;10333306;28;20231;-81
2023/09/20 02:26:19;;;;;;;2.97;2.87;;;18.00;99.40;;;;;;10317865;28;20773;-81
2023/09/20 02:31:21;;;;;;;3.10;2.90;;;18.00;99.10;;;;;;10318289;28;20208;-80
2023/09/20 02:36:23;;;;;;;3.30;3.00;;;17.90;99.20;;;;;;10319613;28;20227;-80
2023/09/20 02:41:26;;;;;;;3.30;3.10;;;17.90;99.20;;;;;;10318643;28;20223;-81
2023/09/20 02:46:28;;;;;;;4.23;3.20;;;17.80;99.30;;;;;;10335584;28;20721;-80
2023/09/20 02:51:30;;;;;;;3.50;3.20;;;17.80;99.30;;;;;;10318112;28;20204;-80
2023/09/20 02:56:34;;;;;;;3.37;3.13;;;17.80;99.50;;;;;;10314784;28;20226;-81
2023/09/20 03:01:38;;;;;;;2.93;2.73;;;17.80;99.60;;;;;;10317345;28;20596;-81
2023/09/20 03:06:40;;;;;;;3.30;3.10;;;17.80;99.50;;;;;;10318093;28;20223;-80
2023/09/20 03:11:44;;;;;;;3.93;3.63;;;17.80;99.50;;;;;;10316094;28;20726;-81
2023/09/20 03:16:46;;;;;;;3.20;3.00;;;17.80;99.40;;;;;;10331554;28;20231;-80
2023/09/20 03:21:50;;;;;;;3.97;3.33;;;17.80;99.20;;;;;;10315189;28;20247;-82
2023/09/20 03:27:28;;;;;;;3.60;3.40;;;17.80;99.30;;;;;;10343279;23;20227;-81
2023/09/20 03:33:34;;;;;;;3.20;3.10;;;17.80;99.50;;;;;;10274411;28;20224;-79
2023/09/20 03:38:57;;;;;;;3.20;3.00;;;17.80;99.70;;;;;;10266210;28;20228;-79
2023/09/20 03:44:17;;;;;;;3.40;3.20;;;17.70;99.70;;;;;;10270851;28;20718;-81
2023/09/20 03:49:43;;;;;;;3.57;3.30;;;17.70;99.40;;;;;;10267930;28;20200;-80
2023/09/20 03:55:04;;;;;;;4.00;3.40;;;17.80;99.60;;;;;;10301869;28;20224;-81
2023/09/20 04:00:42;;;;;;;3.50;3.30;;;17.70;99.50;;;;;;10305320;28;20224;-81
2023/09/20 04:05:57;;;;;;;3.20;2.90;;;17.70;99.30;;;;;;10289285;28;20252;-81
2023/09/20 04:11:14;;;;;;;3.50;3.20;;;17.60;99.40;;;;;;10299570;28;20243;-80
2023/09/20 04:16:43;;;;;;;3.40;3.10;;;17.60;99.60;;;;;;10256104;28;20311;-80
2023/09/20 04:22:01;;;;;;;4.07;3.70;;;17.60;99.70;;;;;;10295493;28;20227;-80
2023/09/20 04:27:29;;;;;;;5.40;2.50;;;17.60;99.90;;;;;;10307427;28;21115;-81
2023/09/20 04:32:47;;;;;;;3.50;3.20;;;17.60;99.60;;;;;;10319998;28;20216;-81
2023/09/20 04:44:03;;;;;;;3.20;3.00;;;17.60;99.80;;;;;;10294674;28;20467;-81
2023/09/20 04:49:13;;;;;;;4.47;3.23;;;17.60;99.60;;;;;;10299965;28;20282;-80
2023/09/20 04:54:15;;;;;;;3.53;3.00;;;17.60;99.70;;;;;;10297843;28;20221;-80
2023/09/20 04:59:43;;;;;;;3.60;3.27;;;17.50;99.60;;;;;;10310914;28;20232;-81
2023/09/20 05:05:34;;;;;;;3.23;3.03;;;17.50;99.80;;;;;;10257588;28;20223;-80
2023/09/20 05:42:18;;;;;;;3.43;2.87;;;17.50;99.80;;;;;;10255961;28;20228;-80
2023/09/20 05:47:33;;;;;;;3.33;3.13;;;17.40;99.80;;;;;;10301212;28;20203;-80
2023/09/20 05:53:01;;;;;;;3.17;2.87;;;17.50;99.90;;;;;;10283888;28;20270;-80
2023/09/20 05:58:25;;;;;;;3.80;2.60;;;17.60;99.90;;;;;;10311505;28;20203;-81
2023/09/20 06:03:37;;;;;;;3.27;3.03;;;17.70;99.60;;;;;;10312912;28;20252;-81
2023/09/20 06:15:00;;;;;;;3.47;3.17;;;17.90;99.50;;;;;;10185234;29;20231;-80
2023/09/20 06:21:17;;;;;;;2.60;2.40;;;18.00;99.90;;;;;;10187877;28;20747;-80
2023/09/20 06:48:29;;;;;;;3.97;2.37;;;18.60;99.20;;;;;;9980175;28;20472;-80
2023/09/20 06:53:58;;;;;;;3.07;2.87;;;18.80;99.20;;;;;;10278655;28;20275;-81
2023/09/20 07:06:14;;;;;;;2.73;2.53;;;19.10;98.90;;;;;;10010042;29;20312;-81
2023/09/20 07:11:41;;;;;;;4.20;2.60;;;19.10;98.60;;;;;;10037492;29;20744;-81
2023/09/20 07:22:21;;;;;;;3.03;2.60;;;19.50;98.40;;;;;;10093659;28;20382;-79
2023/09/20 07:28:42;;;;;;;2.83;2.63;;;19.70;98.50;;;;;;10279456;28;20211;-80
2023/09/20 07:34:17;;;;;;;5.00;3.83;;;20.00;99.10;;;;;;10261667;28;20224;-81
2023/09/20 07:40:11;;;;;;;3.53;3.20;;;20.20;98.60;;;;;;10263748;28;20773;-81
2023/09/20 07:45:38;;;;;;;2.97;2.67;;;20.40;98.70;;;;;;10272102;28;20312;-81
2023/09/20 07:51:40;;;;;;;3.67;2.97;;;20.50;98.60;;;;;;10252155;28;20201;-81
2023/09/20 07:56:53;;;;;;;4.53;2.80;;;20.70;98.00;;;;;;10275645;28;21111;-82
2023/09/20 08:02:46;;;;;;;4.60;2.63;;;20.80;98.50;;;;;;10266751;28;20984;-82
2023/09/20 08:20:21;;;;;;;2.60;2.27;;;21.10;97.30;;;;;;10257997;28;20586;-82
2023/09/20 09:26:29;;;;;;;6.30;2.23;;;21.00;95.90;;;;;;10317092;28;20226;-82
2023/09/20 09:32:42;;;;;;;;;;;;;;;;;;;;;
2023/09/20 09:51:50;;;;;;;2.53;2.33;;;21.10;95.60;;;;;;10173066;28;20216;-81
2023/09/20 10:03:45;;;;;;;2.27;2.17;;;21.40;94.40;;;;;;10197657;29;20236;-81
2023/09/20 10:55:48;;;;;;;;;;;;;;;;;;;;;
2023/09/20 11:13:48;;;;;;;2.80;2.60;;;21.30;94.30;;;;;;10171533;29;20229;-80
2023/09/20 11:19:13;;;;;;;2.73;2.40;;;21.30;93.20;;;;;;10198733;29;20222;-81
2023/09/20 11:57:22;;;;;;;2.40;2.30;;;21.80;93.20;;;;;;9980894;29;20215;-81
2023/09/20 12:03:08;;;;;;;1.80;1.70;;;21.80;92.70;;;;;;10134585;28;20667;-82
2023/09/20 15:05:42;;;;;;;1.40;1.30;;;22.60;93.40;;;;;;10217844;23;20265;-81
2023/09/20 15:10:46;;;;;;;2.40;2.00;;;22.60;93.10;;;;;;10375651;28;20666;-81
2023/09/20 15:15:50;;;;;;;1.00;1.00;;;22.60;93.20;;;;;;10376213;28;20215;-80
2023/09/20 15:20:53;;;;;;;1.93;1.80;;;22.60;94.40;;;;;;10375730;28;20318;-80
2023/09/20 15:25:55;;;;;;;2.07;1.97;;;22.60;93.70;;;;;;10358551;28;20701;-81
2023/09/20 15:30:59;;;;;;;1.50;1.40;;;22.60;92.70;;;;;;10377284;28;20666;-81
2023/09/20 15:36:01;;;;;;;1.73;1.57;;;22.70;93.60;;;;;;10377398;28;20222;-81
2023/09/20 15:41:04;;;;;;;2.07;1.97;;;22.80;91.80;;;;;;10378075;28;20221;-81
2023/09/20 15:51:30;;;;;;;4.10;1.53;;;23.10;91.10;;;;;;10327399;28;20202;-81
2023/09/20 15:56:32;;;;;;;2.70;1.63;;;23.20;92.20;;;;;;10372490;28;20273;-81
2023/09/20 16:01:36;;;;;;;1.70;1.60;;;23.20;92.30;;;;;;10371328;28;20231;-81
2023/09/20 16:06:38;;;;;;;2.23;1.40;;;23.10;92.20;;;;;;10373775;28;20303;-81
2023/09/20 16:11:41;;;;;;;1.73;1.63;;;23.10;92.20;;;;;;10360696;28;20207;-81
2023/09/20 16:16:44;;;;;;;1.80;1.70;;;23.10;92.60;;;;;;10355871;28;20234;-81
2023/09/20 16:21:47;;;;;;;3.03;2.50;;;23.10;93.10;;;;;;10357316;28;20592;-81
2023/09/20 16:26:50;;;;;;;1.80;1.70;;;23.10;92.90;;;;;;10379942;28;20314;-81
2023/09/20 16:31:53;;;;;;;3.77;1.90;;;23.10;93.50;;;;;;10343340;28;20200;-81
2023/09/20 16:36:56;;;;;;;2.03;1.50;;;23.10;93.10;;;;;;10345431;28;20216;-81
2023/09/20 16:42:00;;;;;;;1.97;1.87;;;23.00;93.50;;;;;;10374424;28;20250;-81
2023/09/20 16:47:04;;;;;;;2.10;2.00;;;23.00;93.60;;;;;;10345933;28;20216;-80
2023/09/20 16:52:06;;;;;;;2.63;2.43;;;22.90;93.80;;;;;;10371658;28;20199;-81
2023/09/20 16:57:09;;;;;;;2.37;2.27;;;22.90;93.90;;;;;;10327629;28;20227;-81
2023/09/20 17:02:13;;;;;;;1.93;1.80;;;22.80;93.80;;;;;;10344618;28;20690;-81
2023/09/20 17:07:15;;;;;;;1.70;1.60;;;22.70;94.00;;;;;;10344768;28;20868;-81
2023/09/20 17:12:18;;;;;;;2.80;2.50;;;22.70;94.30;;;;;;10377349;28;20210;-81
2023/09/20 17:17:21;;;;;;;3.03;1.87;;;22.60;94.40;;;;;;10361780;28;20219;-81
2023/09/20 17:22:24;;;;;;;1.97;1.87;;;22.50;94.60;;;;;;10368184;28;21021;-81
2023/09/20 17:27:26;;;;;;;2.40;1.70;;;22.30;94.90;;;;;;10343752;28;20230;-81
2023/09/20 17:32:29;;;;;;;1.80;1.70;;;22.20;94.90;;;;;;10375949;28;20196;-81
2023/09/20 17:37:32;;;;;;;2.27;2.10;;;22.10;95.00;;;;;;10351059;28;20212;-81
2023/09/20 17:42:36;;;;;;;2.97;2.00;;;21.90;95.10;;;;;;10356324;28;20281;-80
2023/09/20 17:47:42;;;;;;;2.23;2.00;;;21.80;94.90;;;;;;10362045;28;20741;-81
2023/09/20 17:52:46;;;;;;;2.00;1.90;;;21.80;94.80;;;;;;10368350;28;20204;-81
2023/09/20 17:57:48;;;;;;;2.10;2.00;;;21.70;94.60;;;;;;10373634;28;20231;-80
2023/09/20 18:02:52;;;;;;;2.00;1.90;;;21.70;94.50;;;;;;10346185;28;20299;-81
2023/09/20 18:07:54;;;;;;;12.70;2.33;;;21.60;94.70;;;;;;10356032;28;20215;-81
2023/09/20 18:12:56;;;;;;;2.13;2.03;;;21.50;94.60;;;;;;10381671;28;20188;-81
2023/09/20 18:17:59;;;;;;;3.33;2.40;;;21.50;94.90;;;;;;10363822;28;20235;-81
2023/09/20 18:23:01;;;;;;;2.07;1.90;;;21.50;95.10;;;;;;10382244;28;20227;-81
2023/09/20 18:28:08;;;;;;;2.13;2.00;;;21.40;95.50;;;;;;10347931;28;20199;-81
2023/09/20 18:33:13;;;;;;;2.10;2.00;;;21.30;95.80;;;;;;10352331;28;20196;-81
2023/09/20 18:38:17;;;;;;;3.10;2.03;;;21.30;95.40;;;;;;10354929;28;20619;-81
2023/09/20 18:43:19;;;;;;;2.20;2.10;;;21.30;95.20;;;;;;10365637;28;20310;-81
2023/09/20 18:48:22;;;;;;;1.60;1.43;;;21.20;95.30;;;;;;10377078;28;20199;-81
2023/09/20 18:53:25;;;;;;;2.10;2.00;;;21.20;95.30;;;;;;10357887;28;20235;-81
2023/09/20 18:58:30;;;;;;;2.03;1.87;;;21.20;95.50;;;;;;10361166;28;20203;-81
2023/09/20 19:03:33;;;;;;;4.17;3.00;;;21.10;95.80;;;;;;10346145;28;20235;-81
2023/09/20 19:08:35;;;;;;;2.17;2.00;;;21.00;96.10;;;;;;10331894;28;20211;-80
2023/09/20 19:13:37;;;;;;;2.50;2.30;;;21.00;96.90;;;;;;10355522;28;20219;-81
2023/09/20 19:18:42;;;;;;;3.13;2.70;;;20.90;97.20;;;;;;10371128;28;20254;-80
2023/09/20 19:23:44;;;;;;;2.63;2.43;;;20.90;97.00;;;;;;10349896;28;20227;-80
2023/09/20 19:28:46;;;;;;;3.40;2.40;;;20.80;97.30;;;;;;10365298;28;20199;-80
2023/09/20 19:33:50;;;;;;;2.80;2.60;;;20.80;97.70;;;;;;10357481;28;20243;-80
2023/09/20 19:38:52;;;;;;;2.60;2.40;;;20.80;97.80;;;;;;10359591;28;20228;-80
2023/09/20 19:43:54;;;;;;;3.10;2.80;;;20.80;98.10;;;;;;10347914;28;20234;-81
2023/09/20 19:48:58;;;;;;;3.07;2.80;;;20.80;98.70;;;;;;10369257;28;20199;-81
2023/09/20 19:54:02;;;;;;;2.70;2.50;;;20.70;99.00;;;;;;10364161;28;20268;-80
2023/09/20 19:59:06;;;;;;;3.37;2.43;;;20.70;98.90;;;;;;10375081;28;20234;-81
2023/09/20 20:04:11;;;;;;;2.60;2.40;;;20.70;99.30;;;;;;10376214;28;20219;-80
2023/09/20 20:09:15;;;;;;;2.67;2.40;;;20.70;99.40;;;;;;10357551;28;20266;-80
2023/09/20 20:14:18;;;;;;;2.90;2.70;;;20.70;98.80;;;;;;10368600;28;20211;-80
2023/09/20 20:19:21;;;;;;;2.67;2.50;;;20.70;99.20;;;;;;10371238;28;20199;-80
2023/09/20 20:24:24;;;;;;;3.67;3.37;;;20.60;99.00;;;;;;10345304;28;20239;-80
2023/09/20 20:29:28;;;;;;;2.83;2.60;;;20.60;98.90;;;;;;10368977;28;20250;-80
2023/09/20 20:34:36;;;;;;;2.70;2.50;;;20.60;99.50;;;;;;10354391;28;20757;-80
2023/09/20 20:39:38;;;;;;;2.93;2.70;;;20.60;99.40;;;;;;10344875;28;20241;-80
2023/09/20 20:44:40;;;;;;;2.77;2.57;;;20.60;99.40;;;;;;10381843;28;20233;-80
2023/09/20 20:49:45;;;;;;;3.17;2.50;;;20.50;99.40;;;;;;10346263;28;20203;-80
2023/09/20 20:54:48;;;;;;;3.10;2.90;;;20.50;99.30;;;;;;10375415;28;20223;-80
2023/09/20 20:59:50;;;;;;;3.60;3.30;;;20.50;99.20;;;;;;10334203;28;20223;-80
2023/09/20 21:05:48;;;;;;;3.20;2.90;;;20.50;99.60;;;;;;10400763;22;20228;-80
2023/09/20 21:31:56;;;;;;;;;;;;;;;;;;;;;
2023/09/20 21:44:55;;;;;;;3.20;3.00;;;20.20;99.70;;;;;;10012707;29;20754;-79
2023/09/20 22:55:38;;;;;;;3.40;3.13;;;19.80;99.50;;;;;;9986229;29;20222;-79
2023/09/20 23:42:19;;;;;;;;;;;;;;;;;;;;;
